Polk Army Air Field
KPOE : now visible

Airfield :











YOU CAN JOIN US ON...

 
LOGIN :

Register | Disclaimer

   EN    FR    IT 

 









Legend :    VFR   Marginal VFR   IFR   Intensive IFR   Very Intensive IFR
Visi :
Ceiling :
>= 8 km
>= 3000ft
5 to 8 km
1000 to 3000 ft
1500m to 5 km
500 to 1000 ft
800 to 1500m
200 to 500 ft
< 800m
< 200 ft
Symbols :   Thunderstorms  Fog  Heavy snow  Heavy precipitations  Wind > 20 kt






- Airport Elevation : 330 ft


KPOE - Polk Army Air Field

CURRENT METAR :
  • 290358Z AUTO 00000KT 10SM CLR 26/25 A2999 RMK AO2 SLP154 T02640247

EXPIRED METARs :
  • 290258Z AUTO 00000KT 10SM CLR 27/25 A2998 RMK AO2 SLP151 T02740251 51013
  • 290158Z AUTO 00000KT 10SM SCT041 28/26 A2998 RMK AO2 LTG DSNT W-N AND SE-S SLP151 T02810258

TAF TAF KPOE
Valid from the 29 at 00:00 until the 30 at 06:00 UTC


290000Z 2900/3006 VRB06KT 9999 SCT035 QNH2992INS
BECMG 2916/2917 12012KT 9000 -SHRA FEW030 QNH2997INS
TEMPO 2917/2922 VRB20G30KT 6000 -TSRA SCT030CB BKN060
BECMG 2923/2924 VRB06KT 9999 NSW SCT025 QNH3000INS TX34/2921Z TN25/2912Z
KZHU FIR / North America



MET'MAP, your aeronautical weather chart ! - Copyright ORBIFLY December 2007 - Disclaimer

ORBIFLY MET'MAP TEAM :

Programming & Development : Alexandra Zaïnal
Concept & original design : Baudouin d'Aumeries
Assistance for programming : Marc-Olivier Méhu
Technical & hardware support : Manuel Goepfert

Contact : metmap@orbifly.com




SOURCES & CREDITS :

   NOAA       Earth
Advisory